map of ETHB home
ETHB - Airport
Location
City:  Bückeburg, Lower Saxony, Germany
ICAO:ETHB

Details
Type:Airport (Flugplatz, Airfield)
Use:Military
Latitude:52°16'42"N (52.278433)
Longitude:9°04'56"E (9.082183)
Elevation:230 ft (70 m)
Variation:2.79°E (WMM2015v2 magnetic declination)
0.18° annual change
Runways:1
Longest:6010 × 148 ft (1832 × 45 m), paved

Time
Time Zone:UTC+1 (DST+2)
Local Time:

Weather
METAR:ETHB 041320Z 22011KT 9999 OVC150 05/M03 Q1024 BLU BLU

Related Locations
Nearby:
Farthest:CHT: 11793 mi / 18979 km
Waitangi [Tuuta], CIT, NZ

Find:

   beyond  
but within

Other Information
Maps:
NOTAMs:
Links:
Sources:

  
  • flag of Germany
  • flag of Lower Saxony
  

Sectional Chart

Flight Planning
at skyvector.com

Satellite Image

Google Maps Satellite view

 

Copyright © 2004-2019 Karl L. Swartz. All rights reserved.
The Great Circle Mapper name and logo are trademarks of the Great Circle Mapper.
All other trademarks mentioned herein belong to their respective owners.
Please see credits for attibutions and further copyright information.

  Follow gcmap on Facebook Follow gcmap on Twitter GCmap on LinkedIn

hCard Microformat

Geo Microformat